createdAt,value
2022-09-30T00:01:14.756Z,100.00
2022-09-30T00:03:41.371Z,100.00
2022-09-30T00:06:09.133Z,100.00
2022-09-30T00:08:36.726Z,100.00
2022-09-30T00:11:04.857Z,100.00
2022-09-30T00:13:32.540Z,100.00
2022-09-30T00:15:59.121Z,100.00
2022-09-30T00:18:26.141Z,100.00
2022-09-30T00:20:53.231Z,100.00
2022-09-30T00:23:20.579Z,100.00
2022-09-30T00:25:48.142Z,100.00
2022-09-30T00:28:15.367Z,100.00
2022-09-30T00:30:42.122Z,100.00
2022-09-30T00:33:08.831Z,100.00
2022-09-30T00:35:36.292Z,100.00
2022-09-30T00:38:02.771Z,100.00
2022-09-30T00:40:30.312Z,100.00
2022-09-30T00:42:58.911Z,100.00
2022-09-30T00:45:26.578Z,100.00
2022-09-30T00:47:54.340Z,100.00
2022-09-30T00:50:34.900Z,100.00
2022-09-30T00:53:01.291Z,100.00
2022-09-30T00:55:48.498Z,100.00
2022-09-30T00:58:18.513Z,100.00
2022-09-30T01:00:45.041Z,100.00
2022-09-30T01:03:11.505Z,100.00
2022-09-30T01:05:38.008Z,100.00
2022-09-30T01:08:05.546Z,100.00
2022-09-30T01:10:31.969Z,100.00
2022-09-30T01:12:59.166Z,100.00
2022-09-30T01:15:35.367Z,100.00
2022-09-30T01:18:25.369Z,100.00
2022-09-30T01:21:07.678Z,100.00
2022-09-30T01:23:45.658Z,100.00
2022-09-30T01:26:12.069Z,100.00
2022-09-30T01:29:00.092Z,100.00
2022-09-30T01:31:59.606Z,100.00
2022-09-30T01:34:45.121Z,100.00
2022-09-30T01:37:23.787Z,100.00
2022-09-30T01:39:53.197Z,100.00
2022-09-30T01:42:26.095Z,100.00
2022-09-30T01:44:53.454Z,100.00
2022-09-30T01:47:22.682Z,100.00
2022-09-30T01:49:53.669Z,100.00
2022-09-30T01:52:25.975Z,100.00
2022-09-30T01:54:55.132Z,100.00
2022-09-30T01:57:25.397Z,100.00
2022-09-30T01:59:56.996Z,100.00
2022-09-30T02:02:26.497Z,100.00
2022-09-30T02:05:16.318Z,100.00
2022-09-30T02:07:45.438Z,100.00
2022-09-30T02:10:22.060Z,100.00
2022-09-30T02:13:03.368Z,100.00
2022-09-30T02:15:38.490Z,100.00
2022-09-30T02:18:16.010Z,100.00
2022-09-30T02:20:43.301Z,100.00
2022-09-30T02:23:14.119Z,100.00
2022-09-30T02:25:47.257Z,100.00
2022-09-30T02:28:20.878Z,100.00
2022-09-30T02:30:50.245Z,100.00
2022-09-30T02:33:22.946Z,100.00
2022-09-30T02:35:52.642Z,100.00
2022-09-30T02:38:20.562Z,100.00
2022-09-30T02:41:10.546Z,100.00
2022-09-30T02:43:37.196Z,100.00
2022-09-30T02:46:15.965Z,100.00
2022-09-30T02:48:45.571Z,100.00
2022-09-30T02:51:25.042Z,100.00
2022-09-30T02:54:00.694Z,100.00
2022-09-30T02:56:27.174Z,100.00
2022-09-30T02:58:56.241Z,100.00
2022-09-30T03:01:24.092Z,100.00
2022-09-30T03:03:55.764Z,100.00
2022-09-30T03:06:22.696Z,100.00
2022-09-30T03:08:49.301Z,100.00
2022-09-30T03:11:18.043Z,100.00
2022-09-30T03:13:59.512Z,100.00
2022-09-30T03:16:39.000Z,100.00
2022-09-30T03:19:20.876Z,100.00
2022-09-30T03:22:15.205Z,100.00
2022-09-30T03:25:00.494Z,100.00
2022-09-30T03:27:43.797Z,100.00
2022-09-30T03:30:24.240Z,100.00
2022-09-30T03:33:12.275Z,100.00
2022-09-30T03:35:48.921Z,100.00
2022-09-30T03:38:25.075Z,100.00
2022-09-30T03:40:57.571Z,100.00
2022-09-30T03:43:25.652Z,100.00
2022-09-30T03:46:15.071Z,100.00
2022-09-30T03:48:43.110Z,100.00
2022-09-30T03:51:09.690Z,100.00
2022-09-30T03:53:40.304Z,100.00
2022-09-30T03:56:07.106Z,100.00
2022-09-30T03:58:34.797Z,100.00
2022-09-30T04:01:01.199Z,100.00
2022-09-30T04:03:28.517Z,100.00
2022-09-30T04:05:55.101Z,100.00
2022-09-30T04:08:23.001Z,100.00
2022-09-30T04:10:49.472Z,100.00
2022-09-30T04:13:15.885Z,100.00
2022-09-30T04:15:42.382Z,100.00
2022-09-30T04:18:08.898Z,99.93
2022-09-30T04:20:35.353Z,100.00
2022-09-30T04:23:02.136Z,100.00
2022-09-30T04:25:28.584Z,100.00
2022-09-30T04:27:55.319Z,100.00
2022-09-30T04:30:25.651Z,100.00
2022-09-30T04:32:53.853Z,100.00
2022-09-30T04:35:20.461Z,100.00
2022-09-30T04:37:47.649Z,100.00
2022-09-30T04:40:14.828Z,100.00
2022-09-30T04:42:42.858Z,100.00
2022-09-30T04:45:10.501Z,100.00
2022-09-30T04:47:36.959Z,100.00
2022-09-30T04:50:03.680Z,100.00
2022-09-30T04:52:30.157Z,100.00
2022-09-30T04:54:57.067Z,100.00
2022-09-30T04:57:23.543Z,100.00
2022-09-30T04:59:50.752Z,100.00
2022-09-30T05:02:17.304Z,100.00
2022-09-30T05:04:43.758Z,100.00
2022-09-30T05:07:10.233Z,100.00
2022-09-30T05:09:36.760Z,100.00
2022-09-30T05:12:03.549Z,100.00
2022-09-30T05:14:30.482Z,100.00
2022-09-30T05:16:56.917Z,100.00
2022-09-30T05:19:23.684Z,100.00
2022-09-30T05:21:50.197Z,100.00
2022-09-30T05:24:17.507Z,100.00
2022-09-30T05:26:44.174Z,100.00
2022-09-30T05:29:10.943Z,100.00
2022-09-30T05:31:37.468Z,100.00
2022-09-30T05:34:04.276Z,100.00
2022-09-30T05:36:30.710Z,100.00
2022-09-30T05:38:57.154Z,100.00
2022-09-30T05:41:24.404Z,100.00
2022-09-30T05:43:51.061Z,100.00
2022-09-30T05:46:18.192Z,100.00
2022-09-30T05:48:44.792Z,100.00
2022-09-30T05:51:11.374Z,100.00
2022-09-30T05:53:38.614Z,100.00
2022-09-30T05:56:06.049Z,100.00
2022-09-30T05:58:32.780Z,100.00
2022-09-30T06:01:09.277Z,99.64
2022-09-30T06:03:38.853Z,98.23
2022-09-30T06:06:06.259Z,97.97
2022-09-30T06:08:32.682Z,97.96
2022-09-30T06:10:59.623Z,99.44
2022-09-30T06:13:27.059Z,99.64
2022-09-30T06:16:00.750Z,100.00
2022-09-30T06:18:27.514Z,100.00
2022-09-30T06:21:01.465Z,98.62
2022-09-30T06:23:28.525Z,97.66
2022-09-30T06:25:55.418Z,97.70
2022-09-30T06:28:22.834Z,95.29
2022-09-30T06:30:49.386Z,96.79
2022-09-30T06:33:16.021Z,97.35
2022-09-30T06:35:42.921Z,97.22
2022-09-30T06:38:10.169Z,96.64
2022-09-30T06:40:37.220Z,97.47
2022-09-30T06:43:04.503Z,97.82
2022-09-30T06:45:33.440Z,97.31
2022-09-30T06:48:01.228Z,96.83
2022-09-30T06:50:28.009Z,95.57
2022-09-30T06:52:59.218Z,96.77
2022-09-30T06:55:27.203Z,97.12
2022-09-30T06:57:55.404Z,97.84
2022-09-30T07:00:22.155Z,99.08
2022-09-30T07:02:51.650Z,98.87
2022-09-30T07:05:18.095Z,98.77
2022-09-30T07:07:44.538Z,98.99
2022-09-30T07:10:11.143Z,98.53
2022-09-30T07:12:37.971Z,98.23
2022-09-30T07:15:04.615Z,96.98
2022-09-30T07:17:31.057Z,97.12
2022-09-30T07:19:58.697Z,95.97
2022-09-30T07:22:28.389Z,96.14
2022-09-30T07:24:55.548Z,95.69
2022-09-30T07:27:22.065Z,95.00
2022-09-30T07:30:08.400Z,97.16
2022-09-30T07:32:35.045Z,96.58
2022-09-30T07:35:01.577Z,96.44
2022-09-30T07:37:28.050Z,95.11
2022-09-30T07:39:54.543Z,96.92
2022-09-30T07:42:23.958Z,94.65
2022-09-30T07:44:52.177Z,94.09
2022-09-30T07:47:18.981Z,92.13
2022-09-30T07:49:45.791Z,96.42
2022-09-30T07:52:12.472Z,95.01
2022-09-30T07:54:43.363Z,93.99
2022-09-30T07:57:12.250Z,91.91
2022-09-30T07:59:40.514Z,89.96
2022-09-30T08:02:08.380Z,86.14
2022-09-30T08:04:35.073Z,89.25
2022-09-30T08:07:02.811Z,84.64
2022-09-30T08:09:30.148Z,87.17
2022-09-30T08:11:57.146Z,83.54
2022-09-30T08:14:27.694Z,87.01
2022-09-30T08:16:55.846Z,88.72
2022-09-30T08:19:23.250Z,89.45
2022-09-30T08:21:50.400Z,83.74
2022-09-30T08:24:16.927Z,80.90
2022-09-30T08:26:43.379Z,80.19
2022-09-30T08:29:17.020Z,74.41
2022-09-30T08:31:46.817Z,74.32
2022-09-30T08:34:13.369Z,72.08
2022-09-30T08:36:40.006Z,68.10
2022-09-30T08:39:06.997Z,73.58
2022-09-30T08:41:33.385Z,73.25
2022-09-30T08:44:18.111Z,67.59
2022-09-30T08:46:54.795Z,67.03
2022-09-30T08:49:44.726Z,63.92
2022-09-30T08:52:24.494Z,67.72
2022-09-30T08:54:57.585Z,67.59
2022-09-30T08:57:24.630Z,68.17
2022-09-30T08:59:56.394Z,63.56
2022-09-30T09:02:27.676Z,64.46
2022-09-30T09:04:57.730Z,66.19
2022-09-30T09:07:39.479Z,64.38
2022-09-30T09:10:12.034Z,65.32
2022-09-30T09:12:49.527Z,61.64
2022-09-30T09:15:22.104Z,61.19
2022-09-30T09:18:04.601Z,61.42
2022-09-30T09:20:47.423Z,60.89
2022-09-30T09:23:14.038Z,59.12
2022-09-30T09:25:40.642Z,58.95
2022-09-30T09:28:18.251Z,58.43
2022-09-30T09:30:48.070Z,60.39
2022-09-30T09:33:22.995Z,55.95
2022-09-30T09:36:05.556Z,54.96
2022-09-30T09:38:50.916Z,57.30
2022-09-30T09:41:17.353Z,55.94
2022-09-30T09:43:43.865Z,53.79
2022-09-30T09:46:15.858Z,56.72
2022-09-30T09:48:42.621Z,55.07
2022-09-30T09:51:27.750Z,56.69
2022-09-30T09:53:58.132Z,57.76
2022-09-30T09:56:32.317Z,54.29
2022-09-30T09:59:08.976Z,53.98
2022-09-30T10:01:37.287Z,54.61
2022-09-30T10:04:09.702Z,51.84
2022-09-30T10:06:44.722Z,54.56
2022-09-30T10:09:23.644Z,56.15
2022-09-30T10:11:50.189Z,55.46
2022-09-30T10:14:20.421Z,56.90
2022-09-30T10:16:46.953Z,59.57
2022-09-30T10:19:20.057Z,58.38
2022-09-30T10:21:46.628Z,57.51
2022-09-30T10:24:39.345Z,57.60
2022-09-30T10:27:39.076Z,57.86
2022-09-30T10:30:05.778Z,59.15
2022-09-30T10:32:32.623Z,57.23
2022-09-30T10:35:16.411Z,57.16
2022-09-30T10:37:51.611Z,55.19
2022-09-30T10:40:18.474Z,54.34
2022-09-30T10:42:47.631Z,54.06
2022-09-30T10:45:22.671Z,55.47
2022-09-30T10:47:50.955Z,57.51
2022-09-30T10:50:20.617Z,56.25
2022-09-30T10:52:50.167Z,53.20
2022-09-30T10:55:19.592Z,53.48
2022-09-30T10:57:46.872Z,54.81
2022-09-30T11:00:23.776Z,56.83
2022-09-30T11:03:06.670Z,57.51
2022-09-30T11:05:48.505Z,60.02
2022-09-30T11:08:14.926Z,58.92
2022-09-30T11:10:57.302Z,57.27
2022-09-30T11:13:27.514Z,57.26
2022-09-30T11:16:09.150Z,58.44
2022-09-30T11:18:45.216Z,57.08
2022-09-30T11:21:34.758Z,58.18
2022-09-30T11:24:24.487Z,57.90
2022-09-30T11:26:57.110Z,58.99
2022-09-30T11:29:42.386Z,60.62
2022-09-30T11:32:16.448Z,63.01
2022-09-30T11:35:02.385Z,63.53
2022-09-30T11:37:38.120Z,60.69
2022-09-30T11:40:05.229Z,59.63
2022-09-30T11:42:43.677Z,59.98
2022-09-30T11:45:30.448Z,58.81
2022-09-30T11:48:05.890Z,54.92
2022-09-30T11:50:52.545Z,52.81
2022-09-30T11:53:18.921Z,54.95
2022-09-30T11:55:45.399Z,55.44
2022-09-30T11:58:39.900Z,54.79
2022-09-30T12:01:25.215Z,50.87
2022-09-30T12:03:55.367Z,50.40
2022-09-30T12:06:28.699Z,50.30
2022-09-30T12:08:59.919Z,50.91
2022-09-30T12:11:49.758Z,50.64
2022-09-30T12:14:20.632Z,52.44
2022-09-30T12:16:48.083Z,53.73
2022-09-30T12:19:25.414Z,52.84
2022-09-30T12:22:21.898Z,54.68
2022-09-30T12:24:48.345Z,54.48
2022-09-30T12:27:17.585Z,54.77
2022-09-30T12:30:16.472Z,53.28
2022-09-30T12:32:52.207Z,54.45
2022-09-30T12:35:24.729Z,52.87
2022-09-30T12:38:00.355Z,55.61
2022-09-30T12:40:52.101Z,54.98
2022-09-30T12:43:38.671Z,55.33
2022-09-30T12:46:05.206Z,52.10
2022-09-30T12:48:37.814Z,51.81
2022-09-30T12:51:04.710Z,53.65
2022-09-30T12:53:33.209Z,54.61
2022-09-30T12:56:04.589Z,54.44
2022-09-30T12:58:37.503Z,56.10
2022-09-30T13:01:07.094Z,56.48
2022-09-30T13:03:48.647Z,56.69
2022-09-30T13:06:16.226Z,59.26
2022-09-30T13:09:01.591Z,59.54
2022-09-30T13:11:44.217Z,60.00
2022-09-30T13:14:13.635Z,59.94
2022-09-30T13:16:58.841Z,61.77
2022-09-30T13:19:33.716Z,62.01
2022-09-30T13:22:18.510Z,61.58
2022-09-30T13:25:05.318Z,62.09
2022-09-30T13:27:35.987Z,60.81
2022-09-30T13:30:22.342Z,61.12
2022-09-30T13:33:05.146Z,63.64
2022-09-30T13:35:37.462Z,64.36
2022-09-30T13:38:13.068Z,63.34
2022-09-30T13:41:01.273Z,63.36
2022-09-30T13:43:42.810Z,65.20
2022-09-30T13:46:30.295Z,64.34
2022-09-30T13:49:00.406Z,65.65
2022-09-30T13:51:35.328Z,64.63
2022-09-30T13:54:23.323Z,65.90
2022-09-30T13:56:49.942Z,66.40
2022-09-30T13:59:16.878Z,66.88
2022-09-30T14:01:53.577Z,65.93
2022-09-30T14:04:21.450Z,66.57
2022-09-30T14:07:06.686Z,68.49
2022-09-30T14:09:41.388Z,68.09
2022-09-30T14:12:26.430Z,69.90
2022-09-30T14:15:19.306Z,69.45
2022-09-30T14:17:45.784Z,70.06
2022-09-30T14:20:22.056Z,70.91
2022-09-30T14:22:48.881Z,72.08
2022-09-30T14:25:16.839Z,71.98
2022-09-30T14:27:48.745Z,70.84
2022-09-30T14:30:21.989Z,69.78
2022-09-30T14:32:50.442Z,70.55
2022-09-30T14:35:21.131Z,71.60
2022-09-30T14:37:49.946Z,72.32
2022-09-30T14:40:18.034Z,72.09
2022-09-30T14:42:45.449Z,72.26
2022-09-30T14:45:26.135Z,71.42
2022-09-30T14:47:54.169Z,71.93
2022-09-30T14:50:23.002Z,72.12
2022-09-30T14:52:53.472Z,72.27
2022-09-30T14:55:28.290Z,72.77
2022-09-30T14:57:55.798Z,72.14
2022-09-30T15:00:31.101Z,73.27
2022-09-30T15:02:59.155Z,71.81
2022-09-30T15:05:26.787Z,73.89
2022-09-30T15:07:53.730Z,73.38
2022-09-30T15:10:22.000Z,73.67
2022-09-30T15:12:50.367Z,75.27
2022-09-30T15:15:23.019Z,73.74
2022-09-30T15:17:51.910Z,75.52
2022-09-30T15:20:27.966Z,75.80
2022-09-30T15:22:55.118Z,76.07
2022-09-30T15:25:22.090Z,76.20
2022-09-30T15:27:49.983Z,76.12
2022-09-30T15:30:17.239Z,76.69
2022-09-30T15:32:44.526Z,76.94
2022-09-30T15:35:15.345Z,77.99
2022-09-30T15:37:43.450Z,78.27
2022-09-30T15:40:34.849Z,78.67
2022-09-30T15:43:03.255Z,78.09
2022-09-30T15:45:34.637Z,78.31
2022-09-30T15:48:07.218Z,78.25
2022-09-30T15:50:37.177Z,78.82
2022-09-30T15:53:05.100Z,78.54
2022-09-30T15:55:37.382Z,78.50
2022-09-30T15:58:05.112Z,78.27
2022-09-30T16:00:35.410Z,77.80
2022-09-30T16:03:17.577Z,77.87
2022-09-30T16:05:50.647Z,78.36
2022-09-30T16:08:27.932Z,79.27
2022-09-30T16:10:57.131Z,79.56
2022-09-30T16:13:25.960Z,79.51
2022-09-30T16:15:54.147Z,80.60
2022-09-30T16:18:23.226Z,81.52
2022-09-30T16:20:58.093Z,81.55
2022-09-30T16:23:37.789Z,82.13
2022-09-30T16:26:13.246Z,84.21
2022-09-30T16:28:39.645Z,83.75
2022-09-30T16:31:07.106Z,83.70
2022-09-30T16:33:38.101Z,83.56
2022-09-30T16:36:04.632Z,83.68
2022-09-30T16:38:31.080Z,84.10
2022-09-30T16:40:58.233Z,84.87
2022-09-30T16:43:26.931Z,84.67
2022-09-30T16:45:53.459Z,85.06
2022-09-30T16:48:21.507Z,84.82
2022-09-30T16:50:49.534Z,84.96
2022-09-30T16:53:16.080Z,85.48
2022-09-30T16:55:43.001Z,85.58
2022-09-30T16:58:10.874Z,86.83
2022-09-30T17:00:37.381Z,87.18
2022-09-30T17:03:03.857Z,88.51
2022-09-30T17:05:30.274Z,89.01
2022-09-30T17:07:57.927Z,88.49
2022-09-30T17:10:25.818Z,88.58
2022-09-30T17:12:52.300Z,87.96
2022-09-30T17:15:19.518Z,87.83
2022-09-30T17:17:46.351Z,88.45
2022-09-30T17:20:12.933Z,88.78
2022-09-30T17:22:39.386Z,89.18
2022-09-30T17:25:06.155Z,90.04
2022-09-30T17:27:32.834Z,90.47
2022-09-30T17:30:01.206Z,90.30
2022-09-30T17:32:27.706Z,90.35
2022-09-30T17:34:54.139Z,91.64
2022-09-30T17:37:21.070Z,91.46
2022-09-30T17:39:47.525Z,92.01
2022-09-30T17:42:33.184Z,92.70
2022-09-30T17:44:59.979Z,92.81
2022-09-30T17:47:26.904Z,93.41
2022-09-30T17:49:53.503Z,91.84
2022-09-30T17:52:20.233Z,94.05
2022-09-30T17:54:52.021Z,94.27
2022-09-30T17:57:19.459Z,94.72
2022-09-30T17:59:46.686Z,95.22
2022-09-30T18:02:15.433Z,94.85
2022-09-30T18:04:42.001Z,94.15
2022-09-30T18:07:10.179Z,95.21
2022-09-30T18:09:37.970Z,95.59
2022-09-30T18:12:04.874Z,95.10
2022-09-30T18:14:38.378Z,95.77
2022-09-30T18:17:05.427Z,96.98
2022-09-30T18:19:32.836Z,96.50
2022-09-30T18:21:59.260Z,96.21
2022-09-30T18:24:44.170Z,98.10
2022-09-30T18:27:11.008Z,98.26
2022-09-30T18:29:38.561Z,98.26
2022-09-30T18:32:05.626Z,98.34
2022-09-30T18:34:32.328Z,98.46
2022-09-30T18:37:03.934Z,98.95
2022-09-30T18:39:31.206Z,98.91
2022-09-30T18:41:57.738Z,97.90
2022-09-30T18:44:25.402Z,98.31
2022-09-30T18:46:53.070Z,98.44
2022-09-30T18:49:19.506Z,98.95
2022-09-30T18:51:45.953Z,98.32
2022-09-30T18:54:15.206Z,99.07
2022-09-30T18:56:43.873Z,99.17
2022-09-30T18:59:18.041Z,99.92
2022-09-30T19:01:47.451Z,99.40
2022-09-30T19:04:13.998Z,100.00
2022-09-30T19:06:42.245Z,100.00
2022-09-30T19:09:09.146Z,100.00
2022-09-30T19:11:36.201Z,100.00
2022-09-30T19:14:03.567Z,100.00
2022-09-30T19:16:35.287Z,100.00
2022-09-30T19:19:04.885Z,100.00
2022-09-30T19:21:36.786Z,100.00
2022-09-30T19:24:07.350Z,100.00
2022-09-30T19:26:36.176Z,97.40
2022-09-30T19:29:03.838Z,96.37
2022-09-30T19:31:30.780Z,98.21
2022-09-30T19:33:58.938Z,99.09
2022-09-30T19:36:26.907Z,99.76
2022-09-30T19:39:08.937Z,100.00
2022-09-30T19:41:37.447Z,100.00
2022-09-30T19:44:04.361Z,99.96
2022-09-30T19:46:30.791Z,99.59
2022-09-30T19:48:57.260Z,99.23
2022-09-30T19:51:23.836Z,98.91
2022-09-30T19:54:03.473Z,98.90
2022-09-30T19:56:30.933Z,99.64
2022-09-30T19:59:00.034Z,99.02
2022-09-30T20:01:30.967Z,98.17
2022-09-30T20:04:00.093Z,97.40
2022-09-30T20:06:28.100Z,98.78
2022-09-30T20:08:59.856Z,98.70
2022-09-30T20:11:27.684Z,98.36
2022-09-30T20:14:15.309Z,98.79
2022-09-30T20:16:43.525Z,98.79
2022-09-30T20:19:10.509Z,98.40
2022-09-30T20:21:41.886Z,98.35
2022-09-30T20:24:12.938Z,97.63
2022-09-30T20:26:39.865Z,96.57
2022-09-30T20:29:09.645Z,98.05
2022-09-30T20:31:36.941Z,98.64
2022-09-30T20:34:04.159Z,99.19
2022-09-30T20:36:31.118Z,98.81
2022-09-30T20:39:03.222Z,97.98
2022-09-30T20:41:31.759Z,95.94
2022-09-30T20:43:58.769Z,96.81
2022-09-30T20:46:26.888Z,97.37
2022-09-30T20:48:53.656Z,95.54
2022-09-30T20:51:20.645Z,97.00
2022-09-30T20:53:51.431Z,97.81
2022-09-30T20:56:19.699Z,98.45
2022-09-30T20:58:46.593Z,98.85
2022-09-30T21:01:13.991Z,98.47
2022-09-30T21:03:41.282Z,97.93
2022-09-30T21:06:10.551Z,97.13
2022-09-30T21:08:38.729Z,97.10
2022-09-30T21:11:07.123Z,95.85
2022-09-30T21:13:33.709Z,95.61
2022-09-30T21:16:04.028Z,95.95
2022-09-30T21:18:31.008Z,95.82
2022-09-30T21:20:58.856Z,99.51
2022-09-30T21:23:29.330Z,99.48
2022-09-30T21:25:56.710Z,99.07
2022-09-30T21:28:23.277Z,98.30
2022-09-30T21:30:49.991Z,98.80
2022-09-30T21:33:16.438Z,99.54
2022-09-30T21:35:42.846Z,99.30
2022-09-30T21:38:09.331Z,99.12
2022-09-30T21:40:35.742Z,100.00
2022-09-30T21:43:02.230Z,100.00
2022-09-30T21:45:28.718Z,100.00
2022-09-30T21:48:02.274Z,99.88
2022-09-30T21:50:28.721Z,99.28
2022-09-30T21:52:55.532Z,99.61
2022-09-30T21:55:21.924Z,100.00
2022-09-30T21:57:48.398Z,99.86
2022-09-30T22:00:16.297Z,99.68
2022-09-30T22:02:43.657Z,100.00
2022-09-30T22:05:10.848Z,99.90
2022-09-30T22:07:38.018Z,99.69
2022-09-30T22:10:04.714Z,100.00
2022-09-30T22:12:33.050Z,99.94
2022-09-30T22:14:59.465Z,100.00
2022-09-30T22:17:25.876Z,99.91
2022-09-30T22:19:52.319Z,100.00
2022-09-30T22:22:18.749Z,100.00
2022-09-30T22:24:45.159Z,99.79
2022-09-30T22:27:12.138Z,100.00
2022-09-30T22:29:38.556Z,100.00
2022-09-30T22:32:05.027Z,100.00
2022-09-30T22:34:51.182Z,100.00
2022-09-30T22:37:36.267Z,100.00
2022-09-30T22:40:02.750Z,100.00
2022-09-30T22:42:29.264Z,100.00
2022-09-30T22:44:55.844Z,100.00
2022-09-30T22:47:22.255Z,100.00
2022-09-30T22:49:48.798Z,99.44
2022-09-30T22:52:15.260Z,98.62
2022-09-30T22:54:41.654Z,98.91
2022-09-30T22:57:09.065Z,100.00
2022-09-30T22:59:36.453Z,100.00
2022-09-30T23:02:04.861Z,100.00
2022-09-30T23:04:32.521Z,100.00
2022-09-30T23:06:59.115Z,100.00
2022-09-30T23:09:25.530Z,100.00
2022-09-30T23:11:53.569Z,100.00
2022-09-30T23:14:20.974Z,100.00
2022-09-30T23:16:47.621Z,100.00
2022-09-30T23:19:14.054Z,100.00
2022-09-30T23:21:40.895Z,100.00
2022-09-30T23:24:07.422Z,100.00
2022-09-30T23:26:34.267Z,100.00
2022-09-30T23:29:02.005Z,100.00
2022-09-30T23:31:28.906Z,100.00
2022-09-30T23:33:56.871Z,100.00
2022-09-30T23:36:26.910Z,100.00
2022-09-30T23:38:53.766Z,100.00
2022-09-30T23:41:20.347Z,100.00
2022-09-30T23:43:48.497Z,100.00
2022-09-30T23:46:16.745Z,100.00
2022-09-30T23:48:45.803Z,100.00
2022-09-30T23:51:13.201Z,100.00
2022-09-30T23:53:39.673Z,100.00
2022-09-30T23:56:08.159Z,100.00
2022-09-30T23:58:35.613Z,100.00
